sensor_id;sensor_type;location;lat;lon;timestamp;P1;durP1;ratioP1;P2;durP2;ratioP2
28631;SDS011;15818;45.534;5.292;2022-08-19T00:00:00;7.82;;;6.40;;
28631;SDS011;15818;45.534;5.292;2022-08-19T00:02:29;8.07;;;6.85;;
28631;SDS011;15818;45.534;5.292;2022-08-19T00:04:54;7.72;;;6.93;;
28631;SDS011;15818;45.534;5.292;2022-08-19T00:07:21;7.90;;;7.10;;
28631;SDS011;15818;45.534;5.292;2022-08-19T00:09:47;7.00;;;6.38;;
28631;SDS011;15818;45.534;5.292;2022-08-19T00:12:13;7.75;;;7.05;;
28631;SDS011;15818;45.534;5.292;2022-08-19T00:14:38;7.35;;;6.65;;
28631;SDS011;15818;45.534;5.292;2022-08-19T00:17:06;7.72;;;6.93;;
28631;SDS011;15818;45.534;5.292;2022-08-19T00:19:32;6.78;;;6.18;;
28631;SDS011;15818;45.534;5.292;2022-08-19T00:21:59;6.78;;;6.07;;
28631;SDS011;15818;45.534;5.292;2022-08-19T00:24:25;6.93;;;6.32;;
28631;SDS011;15818;45.534;5.292;2022-08-19T00:26:52;7.38;;;6.40;;
28631;SDS011;15818;45.534;5.292;2022-08-19T00:29:19;7.03;;;6.40;;
28631;SDS011;15818;45.534;5.292;2022-08-19T00:31:45;6.88;;;6.28;;
28631;SDS011;15818;45.534;5.292;2022-08-19T00:34:12;8.15;;;7.00;;
28631;SDS011;15818;45.534;5.292;2022-08-19T00:36:41;6.85;;;6.15;;
28631;SDS011;15818;45.534;5.292;2022-08-19T00:39:08;7.05;;;6.47;;
28631;SDS011;15818;45.534;5.292;2022-08-19T00:41:34;9.63;;;6.68;;
28631;SDS011;15818;45.534;5.292;2022-08-19T00:44:01;6.60;;;6.10;;
28631;SDS011;15818;45.534;5.292;2022-08-19T00:46:34;6.47;;;5.95;;
28631;SDS011;15818;45.534;5.292;2022-08-19T00:49:03;7.57;;;6.88;;
28631;SDS011;15818;45.534;5.292;2022-08-19T00:52:00;7.78;;;7.03;;
28631;SDS011;15818;45.534;5.292;2022-08-19T00:54:35;7.28;;;6.57;;
28631;SDS011;15818;45.534;5.292;2022-08-19T00:57:03;6.90;;;6.32;;
28631;SDS011;15818;45.534;5.292;2022-08-19T00:59:34;7.75;;;7.05;;
28631;SDS011;15818;45.534;5.292;2022-08-19T01:02:01;7.63;;;6.32;;
28631;SDS011;15818;45.534;5.292;2022-08-19T01:04:27;7.35;;;6.65;;
28631;SDS011;15818;45.534;5.292;2022-08-19T01:06:53;7.43;;;6.63;;
28631;SDS011;15818;45.534;5.292;2022-08-19T01:09:20;9.73;;;7.68;;
28631;SDS011;15818;45.534;5.292;2022-08-19T01:11:46;8.48;;;7.78;;
28631;SDS011;15818;45.534;5.292;2022-08-19T01:14:12;9.48;;;8.45;;
28631;SDS011;15818;45.534;5.292;2022-08-19T01:16:38;9.18;;;8.40;;
28631;SDS011;15818;45.534;5.292;2022-08-19T01:19:14;9.48;;;8.30;;
28631;SDS011;15818;45.534;5.292;2022-08-19T01:21:49;9.15;;;8.30;;
28631;SDS011;15818;45.534;5.292;2022-08-19T01:24:22;10.48;;;9.48;;
28631;SDS011;15818;45.534;5.292;2022-08-19T01:26:48;10.05;;;9.00;;
28631;SDS011;15818;45.534;5.292;2022-08-19T01:29:14;9.23;;;8.35;;
28631;SDS011;15818;45.534;5.292;2022-08-19T01:31:40;9.07;;;8.27;;
28631;SDS011;15818;45.534;5.292;2022-08-19T01:34:06;8.35;;;7.60;;
28631;SDS011;15818;45.534;5.292;2022-08-19T01:36:34;8.52;;;7.70;;
28631;SDS011;15818;45.534;5.292;2022-08-19T01:39:14;8.45;;;7.63;;
28631;SDS011;15818;45.534;5.292;2022-08-19T01:41:42;8.18;;;7.38;;
28631;SDS011;15818;45.534;5.292;2022-08-19T01:44:08;8.70;;;7.90;;
28631;SDS011;15818;45.534;5.292;2022-08-19T01:46:35;7.53;;;6.93;;
28631;SDS011;15818;45.534;5.292;2022-08-19T01:49:02;10.25;;;6.78;;
28631;SDS011;15818;45.534;5.292;2022-08-19T01:51:28;7.22;;;6.55;;
28631;SDS011;15818;45.534;5.292;2022-08-19T01:53:55;8.45;;;7.65;;
28631;SDS011;15818;45.534;5.292;2022-08-19T01:56:21;7.60;;;7.00;;
28631;SDS011;15818;45.534;5.292;2022-08-19T01:58:58;8.82;;;7.25;;
28631;SDS011;15818;45.534;5.292;2022-08-19T02:01:29;8.68;;;7.80;;
28631;SDS011;15818;45.534;5.292;2022-08-19T02:03:57;7.47;;;6.72;;
28631;SDS011;15818;45.534;5.292;2022-08-19T02:06:23;7.57;;;6.95;;
28631;SDS011;15818;45.534;5.292;2022-08-19T02:08:49;7.82;;;7.13;;
28631;SDS011;15818;45.534;5.292;2022-08-19T02:11:20;7.78;;;6.97;;
28631;SDS011;15818;45.534;5.292;2022-08-19T02:13:49;7.57;;;6.97;;
28631;SDS011;15818;45.534;5.292;2022-08-19T02:16:16;8.00;;;6.60;;
28631;SDS011;15818;45.534;5.292;2022-08-19T02:18:43;7.22;;;6.63;;
28631;SDS011;15818;45.534;5.292;2022-08-19T02:21:09;8.07;;;7.20;;
28631;SDS011;15818;45.534;5.292;2022-08-19T02:23:35;9.48;;;7.07;;
28631;SDS011;15818;45.534;5.292;2022-08-19T02:26:01;8.35;;;7.47;;
28631;SDS011;15818;45.534;5.292;2022-08-19T02:30:52;7.15;;;6.45;;
28631;SDS011;15818;45.534;5.292;2022-08-19T02:35:44;8.65;;;7.65;;
28631;SDS011;15818;45.534;5.292;2022-08-19T02:38:11;8.65;;;7.85;;
28631;SDS011;15818;45.534;5.292;2022-08-19T02:40:54;10.13;;;7.82;;
28631;SDS011;15818;45.534;5.292;2022-08-19T02:43:25;8.57;;;7.82;;
28631;SDS011;15818;45.534;5.292;2022-08-19T02:45:53;8.32;;;7.50;;
28631;SDS011;15818;45.534;5.292;2022-08-19T02:48:20;9.55;;;8.55;;
28631;SDS011;15818;45.534;5.292;2022-08-19T02:50:48;8.23;;;7.50;;
28631;SDS011;15818;45.534;5.292;2022-08-19T02:53:20;8.85;;;7.95;;
28631;SDS011;15818;45.534;5.292;2022-08-19T02:55:48;9.65;;;8.40;;
28631;SDS011;15818;45.534;5.292;2022-08-19T02:58:14;8.68;;;7.90;;
28631;SDS011;15818;45.534;5.292;2022-08-19T03:00:44;9.15;;;7.90;;
28631;SDS011;15818;45.534;5.292;2022-08-19T03:03:12;8.55;;;7.75;;
28631;SDS011;15818;45.534;5.292;2022-08-19T03:05:39;7.90;;;7.20;;
28631;SDS011;15818;45.534;5.292;2022-08-19T03:08:05;8.85;;;8.02;;
28631;SDS011;15818;45.534;5.292;2022-08-19T03:10:32;8.15;;;7.32;;
28631;SDS011;15818;45.534;5.292;2022-08-19T03:12:57;8.60;;;7.82;;
28631;SDS011;15818;45.534;5.292;2022-08-19T03:15:23;8.18;;;7.47;;
28631;SDS011;15818;45.534;5.292;2022-08-19T03:17:49;9.23;;;8.25;;
28631;SDS011;15818;45.534;5.292;2022-08-19T03:22:40;8.63;;;7.80;;
28631;SDS011;15818;45.534;5.292;2022-08-19T03:25:06;8.60;;;7.70;;
28631;SDS011;15818;45.534;5.292;2022-08-19T03:27:32;9.13;;;8.02;;
28631;SDS011;15818;45.534;5.292;2022-08-19T03:29:58;10.32;;;8.30;;
28631;SDS011;15818;45.534;5.292;2022-08-19T03:32:24;9.10;;;7.90;;
28631;SDS011;15818;45.534;5.292;2022-08-19T03:34:50;9.80;;;8.90;;
28631;SDS011;15818;45.534;5.292;2022-08-19T03:37:17;10.52;;;9.52;;
28631;SDS011;15818;45.534;5.292;2022-08-19T03:39:42;10.60;;;9.70;;
28631;SDS011;15818;45.534;5.292;2022-08-19T03:42:08;10.73;;;9.43;;
28631;SDS011;15818;45.534;5.292;2022-08-19T03:44:35;8.32;;;7.68;;
28631;SDS011;15818;45.534;5.292;2022-08-19T03:47:02;10.43;;;7.95;;
28631;SDS011;15818;45.534;5.292;2022-08-19T03:49:30;9.50;;;7.93;;
28631;SDS011;15818;45.534;5.292;2022-08-19T03:51:58;8.90;;;8.10;;
28631;SDS011;15818;45.534;5.292;2022-08-19T03:54:27;9.30;;;8.40;;
28631;SDS011;15818;45.534;5.292;2022-08-19T03:56:53;9.02;;;8.32;;
28631;SDS011;15818;45.534;5.292;2022-08-19T03:59:27;9.07;;;8.18;;
28631;SDS011;15818;45.534;5.292;2022-08-19T04:01:56;9.43;;;8.52;;
28631;SDS011;15818;45.534;5.292;2022-08-19T04:04:23;9.95;;;8.68;;
28631;SDS011;15818;45.534;5.292;2022-08-19T04:06:50;9.27;;;8.38;;
28631;SDS011;15818;45.534;5.292;2022-08-19T04:09:16;9.43;;;8.18;;
28631;SDS011;15818;45.534;5.292;2022-08-19T04:11:45;8.73;;;7.95;;
28631;SDS011;15818;45.534;5.292;2022-08-19T04:14:15;9.50;;;7.90;;
28631;SDS011;15818;45.534;5.292;2022-08-19T04:16:43;9.50;;;8.57;;
28631;SDS011;15818;45.534;5.292;2022-08-19T04:19:11;9.18;;;8.38;;
28631;SDS011;15818;45.534;5.292;2022-08-19T04:21:38;9.70;;;8.85;;
28631;SDS011;15818;45.534;5.292;2022-08-19T04:24:04;8.95;;;8.05;;
28631;SDS011;15818;45.534;5.292;2022-08-19T04:26:32;12.10;;;8.98;;
28631;SDS011;15818;45.534;5.292;2022-08-19T04:29:00;10.98;;;8.85;;
28631;SDS011;15818;45.534;5.292;2022-08-19T04:31:29;9.80;;;8.05;;
28631;SDS011;15818;45.534;5.292;2022-08-19T04:34:01;11.68;;;8.63;;
28631;SDS011;15818;45.534;5.292;2022-08-19T04:36:30;9.73;;;8.63;;
28631;SDS011;15818;45.534;5.292;2022-08-19T04:38:58;10.25;;;8.52;;
28631;SDS011;15818;45.534;5.292;2022-08-19T04:41:26;8.95;;;8.15;;
28631;SDS011;15818;45.534;5.292;2022-08-19T04:44:10;9.38;;;8.50;;
28631;SDS011;15818;45.534;5.292;2022-08-19T04:46:37;9.43;;;8.52;;
28631;SDS011;15818;45.534;5.292;2022-08-19T04:49:03;9.23;;;8.32;;
28631;SDS011;15818;45.534;5.292;2022-08-19T04:51:31;9.82;;;8.93;;
28631;SDS011;15818;45.534;5.292;2022-08-19T04:53:58;8.80;;;8.00;;
28631;SDS011;15818;45.534;5.292;2022-08-19T04:56:25;9.65;;;8.65;;
28631;SDS011;15818;45.534;5.292;2022-08-19T04:58:52;10.02;;;8.93;;
28631;SDS011;15818;45.534;5.292;2022-08-19T05:01:20;9.75;;;8.93;;
28631;SDS011;15818;45.534;5.292;2022-08-19T05:03:48;10.35;;;9.40;;
28631;SDS011;15818;45.534;5.292;2022-08-19T05:06:15;9.73;;;8.68;;
28631;SDS011;15818;45.534;5.292;2022-08-19T05:08:43;9.82;;;8.90;;
28631;SDS011;15818;45.534;5.292;2022-08-19T05:11:11;9.57;;;8.77;;
28631;SDS011;15818;45.534;5.292;2022-08-19T05:13:45;9.70;;;8.80;;
28631;SDS011;15818;45.534;5.292;2022-08-19T05:16:13;9.27;;;8.48;;
28631;SDS011;15818;45.534;5.292;2022-08-19T05:18:42;9.85;;;8.80;;
28631;SDS011;15818;45.534;5.292;2022-08-19T05:21:27;9.45;;;8.55;;
28631;SDS011;15818;45.534;5.292;2022-08-19T05:24:13;12.40;;;8.95;;
28631;SDS011;15818;45.534;5.292;2022-08-19T05:26:40;9.57;;;8.52;;
28631;SDS011;15818;45.534;5.292;2022-08-19T05:29:07;10.90;;;9.52;;
28631;SDS011;15818;45.534;5.292;2022-08-19T05:31:35;10.43;;;9.32;;
28631;SDS011;15818;45.534;5.292;2022-08-19T05:34:03;11.02;;;9.55;;
28631;SDS011;15818;45.534;5.292;2022-08-19T05:36:33;11.60;;;9.65;;
28631;SDS011;15818;45.534;5.292;2022-08-19T05:39:00;12.10;;;9.20;;
28631;SDS011;15818;45.534;5.292;2022-08-19T05:41:27;11.07;;;10.02;;
28631;SDS011;15818;45.534;5.292;2022-08-19T05:43:58;10.82;;;9.77;;
28631;SDS011;15818;45.534;5.292;2022-08-19T05:46:28;11.13;;;9.48;;
28631;SDS011;15818;45.534;5.292;2022-08-19T05:48:54;11.43;;;10.02;;
28631;SDS011;15818;45.534;5.292;2022-08-19T05:51:21;11.52;;;9.98;;
28631;SDS011;15818;45.534;5.292;2022-08-19T05:53:48;15.38;;;9.98;;
28631;SDS011;15818;45.534;5.292;2022-08-19T05:56:14;14.20;;;10.63;;
28631;SDS011;15818;45.534;5.292;2022-08-19T05:58:42;13.30;;;9.95;;
28631;SDS011;15818;45.534;5.292;2022-08-19T06:01:10;13.18;;;9.63;;
28631;SDS011;15818;45.534;5.292;2022-08-19T06:03:38;10.68;;;9.30;;
28631;SDS011;15818;45.534;5.292;2022-08-19T06:06:05;9.60;;;7.47;;
28631;SDS011;15818;45.534;5.292;2022-08-19T06:08:32;8.52;;;7.72;;
28631;SDS011;15818;45.534;5.292;2022-08-19T06:10:58;10.25;;;8.65;;
28631;SDS011;15818;45.534;5.292;2022-08-19T06:13:49;10.13;;;7.88;;
28631;SDS011;15818;45.534;5.292;2022-08-19T06:16:18;10.40;;;8.13;;
28631;SDS011;15818;45.534;5.292;2022-08-19T06:18:47;9.45;;;8.02;;
28631;SDS011;15818;45.534;5.292;2022-08-19T06:21:22;9.32;;;7.47;;
28631;SDS011;15818;45.534;5.292;2022-08-19T06:23:50;8.60;;;7.80;;
28631;SDS011;15818;45.534;5.292;2022-08-19T06:26:17;7.35;;;6.65;;
28631;SDS011;15818;45.534;5.292;2022-08-19T06:28:44;8.65;;;7.78;;
28631;SDS011;15818;45.534;5.292;2022-08-19T06:31:15;7.80;;;6.75;;
28631;SDS011;15818;45.534;5.292;2022-08-19T06:33:46;7.88;;;7.18;;
28631;SDS011;15818;45.534;5.292;2022-08-19T06:36:33;8.55;;;7.63;;
28631;SDS011;15818;45.534;5.292;2022-08-19T06:39:02;7.93;;;7.22;;
28631;SDS011;15818;45.534;5.292;2022-08-19T06:41:32;9.20;;;8.27;;
28631;SDS011;15818;45.534;5.292;2022-08-19T06:44:00;9.23;;;8.32;;
28631;SDS011;15818;45.534;5.292;2022-08-19T06:46:26;8.95;;;8.05;;
28631;SDS011;15818;45.534;5.292;2022-08-19T06:48:53;7.65;;;6.95;;
28631;SDS011;15818;45.534;5.292;2022-08-19T06:51:20;8.48;;;7.68;;
28631;SDS011;15818;45.534;5.292;2022-08-19T06:53:47;8.02;;;7.32;;
28631;SDS011;15818;45.534;5.292;2022-08-19T06:56:18;7.60;;;6.90;;
28631;SDS011;15818;45.534;5.292;2022-08-19T06:58:46;8.20;;;7.47;;
28631;SDS011;15818;45.534;5.292;2022-08-19T07:01:13;7.85;;;7.15;;
28631;SDS011;15818;45.534;5.292;2022-08-19T07:03:39;7.93;;;7.13;;
28631;SDS011;15818;45.534;5.292;2022-08-19T07:06:09;8.90;;;8.05;;
28631;SDS011;15818;45.534;5.292;2022-08-19T07:08:38;8.55;;;7.75;;
28631;SDS011;15818;45.534;5.292;2022-08-19T07:11:08;8.48;;;7.63;;
28631;SDS011;15818;45.534;5.292;2022-08-19T07:13:35;8.57;;;7.13;;
28631;SDS011;15818;45.534;5.292;2022-08-19T07:16:08;8.90;;;8.00;;
28631;SDS011;15818;45.534;5.292;2022-08-19T07:18:36;9.10;;;7.70;;
28631;SDS011;15818;45.534;5.292;2022-08-19T07:21:07;8.32;;;7.60;;
28631;SDS011;15818;45.534;5.292;2022-08-19T07:23:37;9.70;;;8.68;;
28631;SDS011;15818;45.534;5.292;2022-08-19T07:26:10;10.02;;;8.73;;
28631;SDS011;15818;45.534;5.292;2022-08-19T07:28:39;9.07;;;8.27;;
28631;SDS011;15818;45.534;5.292;2022-08-19T07:33:31;9.77;;;8.77;;
28631;SDS011;15818;45.534;5.292;2022-08-19T07:35:57;9.82;;;8.85;;
28631;SDS011;15818;45.534;5.292;2022-08-19T07:38:23;11.98;;;9.45;;
28631;SDS011;15818;45.534;5.292;2022-08-19T07:40:49;10.57;;;9.48;;
28631;SDS011;15818;45.534;5.292;2022-08-19T07:43:16;10.98;;;9.88;;
28631;SDS011;15818;45.534;5.292;2022-08-19T07:45:45;10.82;;;9.00;;
28631;SDS011;15818;45.534;5.292;2022-08-19T07:48:12;11.10;;;9.20;;
28631;SDS011;15818;45.534;5.292;2022-08-19T07:50:39;10.20;;;9.20;;
28631;SDS011;15818;45.534;5.292;2022-08-19T07:53:05;14.57;;;9.60;;
28631;SDS011;15818;45.534;5.292;2022-08-19T07:55:31;10.82;;;9.68;;
28631;SDS011;15818;45.534;5.292;2022-08-19T07:57:57;12.23;;;10.30;;
28631;SDS011;15818;45.534;5.292;2022-08-19T08:00:23;14.02;;;9.60;;
28631;SDS011;15818;45.534;5.292;2022-08-19T08:02:48;10.48;;;9.48;;
28631;SDS011;15818;45.534;5.292;2022-08-19T08:05:14;11.07;;;10.05;;
28631;SDS011;15818;45.534;5.292;2022-08-19T08:07:58;10.35;;;9.35;;
28631;SDS011;15818;45.534;5.292;2022-08-19T08:10:42;12.05;;;10.52;;
28631;SDS011;15818;45.534;5.292;2022-08-19T08:13:08;10.85;;;9.85;;
28631;SDS011;15818;45.534;5.292;2022-08-19T08:15:34;11.27;;;10.20;;
28631;SDS011;15818;45.534;5.292;2022-08-19T08:20:25;11.35;;;10.35;;
28631;SDS011;15818;45.534;5.292;2022-08-19T08:22:51;12.70;;;11.40;;
28631;SDS011;15818;45.534;5.292;2022-08-19T08:25:35;14.23;;;11.13;;
28631;SDS011;15818;45.534;5.292;2022-08-19T08:28:02;13.80;;;11.50;;
28631;SDS011;15818;45.534;5.292;2022-08-19T08:30:29;11.95;;;10.75;;
28631;SDS011;15818;45.534;5.292;2022-08-19T08:32:57;12.45;;;10.65;;
28631;SDS011;15818;45.534;5.292;2022-08-19T08:35:24;13.90;;;12.40;;
28631;SDS011;15818;45.534;5.292;2022-08-19T08:37:50;17.55;;;12.48;;
28631;SDS011;15818;45.534;5.292;2022-08-19T08:40:21;15.85;;;12.98;;
28631;SDS011;15818;45.534;5.292;2022-08-19T08:42:54;18.02;;;12.70;;
28631;SDS011;15818;45.534;5.292;2022-08-19T08:45:30;14.48;;;11.85;;
28631;SDS011;15818;45.534;5.292;2022-08-19T08:48:01;13.95;;;12.65;;
28631;SDS011;15818;45.534;5.292;2022-08-19T08:50:37;14.70;;;13.23;;
28631;SDS011;15818;45.534;5.292;2022-08-19T08:53:06;15.10;;;12.45;;
28631;SDS011;15818;45.534;5.292;2022-08-19T08:55:33;24.05;;;13.63;;
28631;SDS011;15818;45.534;5.292;2022-08-19T08:58:03;29.50;;;14.55;;
28631;SDS011;15818;45.534;5.292;2022-08-19T09:00:35;20.98;;;13.60;;
28631;SDS011;15818;45.534;5.292;2022-08-19T09:03:21;18.17;;;13.20;;
28631;SDS011;15818;45.534;5.292;2022-08-19T09:06:02;21.13;;;14.52;;
28631;SDS011;15818;45.534;5.292;2022-08-19T09:08:39;19.23;;;13.88;;
28631;SDS011;15818;45.534;5.292;2022-08-19T09:11:37;16.50;;;13.18;;
28631;SDS011;15818;45.534;5.292;2022-08-19T09:17:07;17.23;;;15.13;;
28631;SDS011;15818;45.534;5.292;2022-08-19T09:19:56;17.75;;;13.95;;
28631;SDS011;15818;45.534;5.292;2022-08-19T09:22:22;16.52;;;14.80;;
28631;SDS011;15818;45.534;5.292;2022-08-19T09:24:49;16.17;;;14.07;;
28631;SDS011;15818;45.534;5.292;2022-08-19T09:27:19;18.48;;;14.63;;
28631;SDS011;15818;45.534;5.292;2022-08-19T09:29:48;16.75;;;14.43;;
28631;SDS011;15818;45.534;5.292;2022-08-19T09:32:15;16.73;;;15.02;;
28631;SDS011;15818;45.534;5.292;2022-08-19T09:34:42;16.20;;;14.07;;
28631;SDS011;15818;45.534;5.292;2022-08-19T09:37:08;16.30;;;14.65;;
28631;SDS011;15818;45.534;5.292;2022-08-19T09:39:34;16.45;;;14.73;;
28631;SDS011;15818;45.534;5.292;2022-08-19T09:42:00;16.98;;;15.23;;
28631;SDS011;15818;45.534;5.292;2022-08-19T09:44:28;18.13;;;14.95;;
28631;SDS011;15818;45.534;5.292;2022-08-19T09:46:54;17.23;;;15.40;;
28631;SDS011;15818;45.534;5.292;2022-08-19T09:49:21;20.17;;;14.75;;
28631;SDS011;15818;45.534;5.292;2022-08-19T09:51:50;19.27;;;15.35;;
28631;SDS011;15818;45.534;5.292;2022-08-19T09:54:21;19.35;;;14.15;;
28631;SDS011;15818;45.534;5.292;2022-08-19T09:56:47;17.20;;;15.40;;
28631;SDS011;15818;45.534;5.292;2022-08-19T09:59:12;16.95;;;15.35;;
28631;SDS011;15818;45.534;5.292;2022-08-19T10:01:38;17.50;;;15.38;;
28631;SDS011;15818;45.534;5.292;2022-08-19T10:04:04;18.55;;;14.63;;
28631;SDS011;15818;45.534;5.292;2022-08-19T10:06:39;19.40;;;14.63;;
28631;SDS011;15818;45.534;5.292;2022-08-19T10:09:06;19.60;;;15.80;;
28631;SDS011;15818;45.534;5.292;2022-08-19T10:11:35;17.25;;;15.45;;
28631;SDS011;15818;45.534;5.292;2022-08-19T10:14:02;18.05;;;15.85;;
28631;SDS011;15818;45.534;5.292;2022-08-19T10:16:30;16.20;;;14.50;;
28631;SDS011;15818;45.534;5.292;2022-08-19T10:18:56;17.60;;;15.80;;
28631;SDS011;15818;45.534;5.292;2022-08-19T10:21:24;16.85;;;14.43;;
28631;SDS011;15818;45.534;5.292;2022-08-19T10:23:52;17.80;;;15.20;;
28631;SDS011;15818;45.534;5.292;2022-08-19T10:26:25;16.17;;;14.57;;
28631;SDS011;15818;45.534;5.292;2022-08-19T10:28:53;16.85;;;14.93;;
28631;SDS011;15818;45.534;5.292;2022-08-19T10:31:21;16.67;;;15.07;;
28631;SDS011;15818;45.534;5.292;2022-08-19T10:33:50;17.02;;;15.32;;
28631;SDS011;15818;45.534;5.292;2022-08-19T10:36:25;16.40;;;14.70;;
28631;SDS011;15818;45.534;5.292;2022-08-19T10:38:57;19.40;;;17.35;;
28631;SDS011;15818;45.534;5.292;2022-08-19T10:41:27;19.48;;;17.38;;
28631;SDS011;15818;45.534;5.292;2022-08-19T10:43:56;18.45;;;16.55;;
28631;SDS011;15818;45.534;5.292;2022-08-19T10:46:24;20.65;;;17.90;;
28631;SDS011;15818;45.534;5.292;2022-08-19T10:48:52;19.65;;;16.38;;
28631;SDS011;15818;45.534;5.292;2022-08-19T10:51:19;19.75;;;17.75;;
28631;SDS011;15818;45.534;5.292;2022-08-19T10:54:03;18.45;;;16.40;;
28631;SDS011;15818;45.534;5.292;2022-08-19T10:56:29;18.73;;;16.48;;
28631;SDS011;15818;45.534;5.292;2022-08-19T10:59:14;18.40;;;16.50;;
28631;SDS011;15818;45.534;5.292;2022-08-19T11:01:42;17.25;;;15.45;;
28631;SDS011;15818;45.534;5.292;2022-08-19T11:04:09;30.42;;;16.10;;
28631;SDS011;15818;45.534;5.292;2022-08-19T11:06:38;20.77;;;17.10;;
28631;SDS011;15818;45.534;5.292;2022-08-19T11:09:17;18.33;;;16.42;;
28631;SDS011;15818;45.534;5.292;2022-08-19T11:11:44;20.25;;;17.35;;
28631;SDS011;15818;45.534;5.292;2022-08-19T11:14:17;18.63;;;16.63;;
28631;SDS011;15818;45.534;5.292;2022-08-19T11:16:45;18.48;;;16.63;;
28631;SDS011;15818;45.534;5.292;2022-08-19T11:19:12;18.42;;;16.55;;
28631;SDS011;15818;45.534;5.292;2022-08-19T11:21:41;18.73;;;16.85;;
28631;SDS011;15818;45.534;5.292;2022-08-19T11:24:10;18.95;;;17.00;;
28631;SDS011;15818;45.534;5.292;2022-08-19T11:26:38;24.17;;;17.52;;
28631;SDS011;15818;45.534;5.292;2022-08-19T11:29:06;18.15;;;15.95;;
28631;SDS011;15818;45.534;5.292;2022-08-19T11:31:36;18.98;;;16.88;;
28631;SDS011;15818;45.534;5.292;2022-08-19T11:34:05;18.40;;;16.48;;
28631;SDS011;15818;45.534;5.292;2022-08-19T11:36:33;17.98;;;16.13;;
28631;SDS011;15818;45.534;5.292;2022-08-19T11:39:03;17.10;;;15.30;;
28631;SDS011;15818;45.534;5.292;2022-08-19T11:41:30;17.25;;;15.48;;
28631;SDS011;15818;45.534;5.292;2022-08-19T11:43:56;17.42;;;15.65;;
28631;SDS011;15818;45.534;5.292;2022-08-19T11:46:23;17.45;;;15.65;;
28631;SDS011;15818;45.534;5.292;2022-08-19T11:48:50;17.08;;;15.38;;
28631;SDS011;15818;45.534;5.292;2022-08-19T11:51:18;18.33;;;16.02;;
28631;SDS011;15818;45.534;5.292;2022-08-19T11:53:47;17.63;;;15.48;;
28631;SDS011;15818;45.534;5.292;2022-08-19T11:56:14;18.85;;;15.50;;
28631;SDS011;15818;45.534;5.292;2022-08-19T11:58:40;18.38;;;15.20;;
28631;SDS011;15818;45.534;5.292;2022-08-19T12:01:09;17.52;;;15.52;;
28631;SDS011;15818;45.534;5.292;2022-08-19T12:03:41;18.95;;;16.92;;
28631;SDS011;15818;45.534;5.292;2022-08-19T12:06:11;19.88;;;16.33;;
28631;SDS011;15818;45.534;5.292;2022-08-19T12:08:42;19.75;;;16.17;;
28631;SDS011;15818;45.534;5.292;2022-08-19T12:11:09;17.98;;;15.73;;
28631;SDS011;15818;45.534;5.292;2022-08-19T12:13:36;18.60;;;15.00;;
28631;SDS011;15818;45.534;5.292;2022-08-19T12:16:10;18.85;;;16.60;;
28631;SDS011;15818;45.534;5.292;2022-08-19T12:18:40;18.10;;;16.13;;
28631;SDS011;15818;45.534;5.292;2022-08-19T12:21:11;19.45;;;15.75;;
28631;SDS011;15818;45.534;5.292;2022-08-19T12:23:41;18.13;;;15.90;;
28631;SDS011;15818;45.534;5.292;2022-08-19T12:26:08;17.35;;;15.52;;
28631;SDS011;15818;45.534;5.292;2022-08-19T12:28:35;18.08;;;15.93;;
28631;SDS011;15818;45.534;5.292;2022-08-19T12:31:01;18.50;;;16.58;;
28631;SDS011;15818;45.534;5.292;2022-08-19T12:35:53;17.50;;;14.68;;
28631;SDS011;15818;45.534;5.292;2022-08-19T12:38:19;17.67;;;15.82;;
28631;SDS011;15818;45.534;5.292;2022-08-19T12:40:48;17.50;;;15.80;;
28631;SDS011;15818;45.534;5.292;2022-08-19T12:43:16;17.10;;;15.32;;
28631;SDS011;15818;45.534;5.292;2022-08-19T12:45:44;17.50;;;15.75;;
28631;SDS011;15818;45.534;5.292;2022-08-19T12:48:10;19.00;;;15.68;;
28631;SDS011;15818;45.534;5.292;2022-08-19T12:50:40;18.55;;;15.48;;
28631;SDS011;15818;45.534;5.292;2022-08-19T12:53:07;16.80;;;15.20;;
28631;SDS011;15818;45.534;5.292;2022-08-19T12:55:33;18.15;;;16.23;;
28631;SDS011;15818;45.534;5.292;2022-08-19T12:57:59;19.33;;;15.48;;
28631;SDS011;15818;45.534;5.292;2022-08-19T13:00:28;17.05;;;14.82;;
28631;SDS011;15818;45.534;5.292;2022-08-19T13:02:55;19.08;;;15.05;;
28631;SDS011;15818;45.534;5.292;2022-08-19T13:05:22;16.60;;;14.40;;
28631;SDS011;15818;45.534;5.292;2022-08-19T13:07:50;15.55;;;13.82;;
28631;SDS011;15818;45.534;5.292;2022-08-19T13:10:20;15.73;;;14.20;;
28631;SDS011;15818;45.534;5.292;2022-08-19T13:12:47;15.70;;;14.20;;
28631;SDS011;15818;45.534;5.292;2022-08-19T13:15:15;15.25;;;13.65;;
28631;SDS011;15818;45.534;5.292;2022-08-19T13:17:45;15.70;;;14.18;;
28631;SDS011;15818;45.534;5.292;2022-08-19T13:20:12;17.13;;;14.23;;
28631;SDS011;15818;45.534;5.292;2022-08-19T13:22:38;15.77;;;14.27;;
28631;SDS011;15818;45.534;5.292;2022-08-19T13:25:04;17.48;;;13.95;;
28631;SDS011;15818;45.534;5.292;2022-08-19T13:27:32;15.30;;;13.77;;
28631;SDS011;15818;45.534;5.292;2022-08-19T13:29:58;14.80;;;13.30;;
28631;SDS011;15818;45.534;5.292;2022-08-19T13:32:42;16.15;;;13.60;;
28631;SDS011;15818;45.534;5.292;2022-08-19T13:35:27;15.85;;;13.68;;
28631;SDS011;15818;45.534;5.292;2022-08-19T13:37:52;16.20;;;14.15;;
28631;SDS011;15818;45.534;5.292;2022-08-19T13:40:19;14.98;;;13.25;;
28631;SDS011;15818;45.534;5.292;2022-08-19T13:42:49;15.82;;;12.88;;
28631;SDS011;15818;45.534;5.292;2022-08-19T13:45:18;14.93;;;12.98;;
28631;SDS011;15818;45.534;5.292;2022-08-19T13:47:46;15.00;;;13.20;;
28631;SDS011;15818;45.534;5.292;2022-08-19T13:50:14;14.98;;;13.10;;
28631;SDS011;15818;45.534;5.292;2022-08-19T13:52:42;14.82;;;12.68;;
28631;SDS011;15818;45.534;5.292;2022-08-19T13:55:08;14.45;;;13.02;;
28631;SDS011;15818;45.534;5.292;2022-08-19T13:57:36;14.93;;;13.27;;
28631;SDS011;15818;45.534;5.292;2022-08-19T14:00:04;14.40;;;12.68;;
28631;SDS011;15818;45.534;5.292;2022-08-19T14:02:35;14.27;;;12.90;;
28631;SDS011;15818;45.534;5.292;2022-08-19T14:05:03;14.38;;;12.93;;
28631;SDS011;15818;45.534;5.292;2022-08-19T14:07:30;15.40;;;12.82;;
28631;SDS011;15818;45.534;5.292;2022-08-19T14:09:56;17.02;;;13.25;;
28631;SDS011;15818;45.534;5.292;2022-08-19T14:12:22;12.93;;;11.50;;
28631;SDS011;15818;45.534;5.292;2022-08-19T14:14:48;16.55;;;11.68;;
28631;SDS011;15818;45.534;5.292;2022-08-19T14:17:14;14.18;;;11.10;;
28631;SDS011;15818;45.534;5.292;2022-08-19T14:19:40;11.70;;;10.60;;
28631;SDS011;15818;45.534;5.292;2022-08-19T14:22:07;11.95;;;10.65;;
28631;SDS011;15818;45.534;5.292;2022-08-19T14:24:33;14.05;;;10.75;;
28631;SDS011;15818;45.534;5.292;2022-08-19T14:26:58;12.13;;;10.23;;
28631;SDS011;15818;45.534;5.292;2022-08-19T14:29:25;10.65;;;9.55;;
28631;SDS011;15818;45.534;5.292;2022-08-19T14:31:53;11.50;;;9.90;;
28631;SDS011;15818;45.534;5.292;2022-08-19T14:34:21;10.95;;;9.23;;
28631;SDS011;15818;45.534;5.292;2022-08-19T14:36:47;12.13;;;9.80;;
28631;SDS011;15818;45.534;5.292;2022-08-19T14:39:13;10.20;;;9.20;;
28631;SDS011;15818;45.534;5.292;2022-08-19T14:41:39;9.20;;;8.30;;
28631;SDS011;15818;45.534;5.292;2022-08-19T14:44:07;9.77;;;8.80;;
28631;SDS011;15818;45.534;5.292;2022-08-19T14:46:35;10.27;;;9.00;;
28631;SDS011;15818;45.534;5.292;2022-08-19T14:49:00;12.23;;;8.90;;
28631;SDS011;15818;45.534;5.292;2022-08-19T14:51:27;9.30;;;8.40;;
28631;SDS011;15818;45.534;5.292;2022-08-19T14:53:53;8.05;;;7.30;;
28631;SDS011;15818;45.534;5.292;2022-08-19T14:56:21;10.38;;;8.10;;
28631;SDS011;15818;45.534;5.292;2022-08-19T14:58:48;9.82;;;8.00;;